createdAt,value
2019-03-11T00:00:35.120Z,3.01
2019-03-11T00:03:04.082Z,2.94
2019-03-11T00:05:32.700Z,3.00
2019-03-11T00:08:01.305Z,3.06
2019-03-11T00:10:29.878Z,2.96
2019-03-11T00:12:58.585Z,3.02
2019-03-11T00:15:27.158Z,3.07
2019-03-11T00:17:56.034Z,3.04
2019-03-11T00:20:24.627Z,3.11
2019-03-11T00:22:53.504Z,2.89
2019-03-11T00:25:22.166Z,2.99
2019-03-11T00:27:50.678Z,2.96
2019-03-11T00:30:19.266Z,2.86
2019-03-11T00:32:47.747Z,2.94
2019-03-11T00:35:16.328Z,2.92
2019-03-11T00:37:44.875Z,2.88
2019-03-11T00:40:14.853Z,2.91
2019-03-11T00:42:43.361Z,2.90
2019-03-11T00:45:14.068Z,2.95
2019-03-11T00:47:42.565Z,2.95
2019-03-11T00:50:12.834Z,2.94
2019-03-11T00:52:41.730Z,2.88
2019-03-11T00:55:14.015Z,2.91
2019-03-11T00:57:42.783Z,2.88
2019-03-11T01:00:35.455Z,2.89
2019-03-11T01:03:03.946Z,2.78
2019-03-11T01:05:32.490Z,2.91
2019-03-11T01:08:01.064Z,2.78
2019-03-11T01:10:29.595Z,2.88
2019-03-11T01:12:58.240Z,2.99
2019-03-11T01:15:26.912Z,2.87
2019-03-11T01:17:55.506Z,2.92
2019-03-11T01:20:24.014Z,2.92
2019-03-11T01:22:52.682Z,2.97
2019-03-11T01:25:21.322Z,2.96
2019-03-11T01:27:49.943Z,2.47
2019-03-11T01:30:18.820Z,2.92
2019-03-11T01:32:47.414Z,2.87
2019-03-11T01:35:16.092Z,3.06
2019-03-11T01:37:45.180Z,2.98
2019-03-11T01:40:15.223Z,3.02
2019-03-11T01:42:43.764Z,3.01
2019-03-11T01:45:14.642Z,3.10
2019-03-11T01:47:43.224Z,2.93
2019-03-11T01:50:13.862Z,2.98
2019-03-11T01:52:42.425Z,3.02
2019-03-11T01:55:13.071Z,3.09
2019-03-11T01:57:41.587Z,3.02
2019-03-11T02:00:18.677Z,2.94
2019-03-11T02:02:47.378Z,3.03
2019-03-11T02:05:15.917Z,2.98
2019-03-11T02:07:44.701Z,2.89
2019-03-11T02:10:19.957Z,3.03
2019-03-11T02:12:48.470Z,2.83
2019-03-11T02:15:18.346Z,2.87
2019-03-11T02:17:46.978Z,2.78
2019-03-11T02:20:17.576Z,2.59
2019-03-11T02:22:46.102Z,2.42
2019-03-11T02:25:15.543Z,2.55
2019-03-11T02:27:44.096Z,2.38
2019-03-11T02:30:17.042Z,2.31
2019-03-11T02:32:45.734Z,2.26
2019-03-11T02:35:16.160Z,2.27
2019-03-11T02:37:44.741Z,2.05
2019-03-11T02:40:14.614Z,2.09
2019-03-11T02:42:43.189Z,2.07
2019-03-11T02:45:12.330Z,2.15
2019-03-11T02:47:41.005Z,2.26
2019-03-11T02:50:10.822Z,2.21
2019-03-11T02:52:39.401Z,2.27
2019-03-11T02:55:08.425Z,2.46
2019-03-11T02:57:37.070Z,2.31
2019-03-11T03:00:09.183Z,2.45
2019-03-11T03:02:39.447Z,2.42
2019-03-11T03:05:13.755Z,2.30
2019-03-11T03:07:42.306Z,2.55
2019-03-11T03:10:11.764Z,2.56
2019-03-11T03:12:40.296Z,2.63
2019-03-11T03:15:10.080Z,2.70
2019-03-11T03:17:38.718Z,2.50
2019-03-11T03:20:10.418Z,2.64
2019-03-11T03:22:39.232Z,2.62
2019-03-11T03:25:09.982Z,2.53
2019-03-11T03:27:38.737Z,2.69
2019-03-11T03:30:13.606Z,2.61
2019-03-11T03:32:42.239Z,2.50
2019-03-11T03:35:11.239Z,2.54
2019-03-11T03:37:39.781Z,2.53
2019-03-11T03:40:11.307Z,2.46
2019-03-11T03:42:39.965Z,2.54
2019-03-11T03:45:38.826Z,2.43
2019-03-11T03:48:07.755Z,2.42
2019-03-11T03:50:38.230Z,2.65
2019-03-11T03:53:07.644Z,2.63
2019-03-11T03:55:36.200Z,2.55
2019-03-11T03:58:04.878Z,2.54
2019-03-11T04:00:33.550Z,2.65
2019-03-11T04:03:02.184Z,2.59
2019-03-11T04:05:30.779Z,2.49
2019-03-11T04:07:59.502Z,2.61
2019-03-11T04:10:28.049Z,2.48
2019-03-11T04:12:56.637Z,2.51
2019-03-11T04:15:25.198Z,2.63
2019-03-11T04:17:54.025Z,2.58
2019-03-11T04:20:24.857Z,2.62
2019-03-11T04:22:53.676Z,2.75
2019-03-11T04:25:22.184Z,2.84
2019-03-11T04:27:50.873Z,2.66
2019-03-11T04:30:27.547Z,2.72
2019-03-11T04:32:56.055Z,2.60
2019-03-11T04:35:24.707Z,2.63
2019-03-11T04:37:53.594Z,2.60
2019-03-11T04:40:22.140Z,2.68
2019-03-11T04:42:50.750Z,2.69
2019-03-11T04:45:19.258Z,2.72
2019-03-11T04:47:47.886Z,2.70
2019-03-11T04:50:18.633Z,2.68
2019-03-11T04:52:47.228Z,2.71
2019-03-11T04:55:16.758Z,2.78
2019-03-11T04:57:50.904Z,2.78
2019-03-11T05:00:22.588Z,2.83
2019-03-11T05:02:51.089Z,2.77
2019-03-11T05:05:19.678Z,2.83
2019-03-11T05:07:48.200Z,2.91
2019-03-11T05:10:17.142Z,2.93
2019-03-11T05:12:45.819Z,3.09
2019-03-11T05:15:14.718Z,3.04
2019-03-11T05:17:43.799Z,2.97
2019-03-11T05:20:16.462Z,3.00
2019-03-11T05:22:45.012Z,3.09
2019-03-11T05:25:14.528Z,3.08
2019-03-11T05:27:43.102Z,3.14
2019-03-11T05:30:20.454Z,3.21
2019-03-11T05:32:49.336Z,3.16
2019-03-11T05:35:17.900Z,3.12
2019-03-11T05:37:46.449Z,3.17
2019-03-11T05:40:19.332Z,3.03
2019-03-11T05:42:47.916Z,3.06
2019-03-11T05:45:17.744Z,3.17
2019-03-11T05:47:46.297Z,3.13
2019-03-11T05:50:18.746Z,3.12
2019-03-11T05:52:47.530Z,3.07
2019-03-11T05:55:16.286Z,3.05
2019-03-11T05:57:45.413Z,3.09
2019-03-11T06:00:19.001Z,3.17
2019-03-11T06:02:47.581Z,3.15
2019-03-11T06:05:16.161Z,3.14
2019-03-11T06:07:44.707Z,3.11
2019-03-11T06:10:14.814Z,3.31
2019-03-11T06:12:43.379Z,3.24
2019-03-11T06:15:15.697Z,3.29
2019-03-11T06:17:44.485Z,3.04
2019-03-11T06:20:31.582Z,3.05
2019-03-11T06:23:01.535Z,3.00
2019-03-11T06:25:30.057Z,3.03
2019-03-11T06:27:58.661Z,2.88
2019-03-11T06:30:27.222Z,2.88
2019-03-11T06:32:55.813Z,2.99
2019-03-11T06:35:24.389Z,3.08
2019-03-11T06:37:52.982Z,2.96
2019-03-11T06:40:21.554Z,2.98
2019-03-11T06:42:50.194Z,2.89
2019-03-11T06:45:18.740Z,2.91
2019-03-11T06:47:47.413Z,2.89
2019-03-11T06:50:16.280Z,2.99
2019-03-11T06:52:44.804Z,3.03
2019-03-11T06:55:13.647Z,2.98
2019-03-11T06:57:42.426Z,3.15
2019-03-11T07:00:21.923Z,3.14
2019-03-11T07:02:50.658Z,2.98
2019-03-11T07:05:20.938Z,3.02
2019-03-11T07:07:49.485Z,3.20
2019-03-11T07:10:18.092Z,3.26
2019-03-11T07:12:46.735Z,3.48
2019-03-11T07:15:16.296Z,3.28
2019-03-11T07:17:45.382Z,3.39
2019-03-11T07:20:16.297Z,3.40
2019-03-11T07:22:44.905Z,3.59
2019-03-11T07:25:13.917Z,3.67
2019-03-11T07:27:42.559Z,3.80
2019-03-11T07:30:21.281Z,3.79
2019-03-11T07:32:49.796Z,3.78
2019-03-11T07:35:18.379Z,3.90
2019-03-11T07:37:46.933Z,4.12
2019-03-11T07:40:28.572Z,4.16
2019-03-11T07:42:46.975Z,4.29
2019-03-11T07:45:16.713Z,4.38
2019-03-11T07:47:45.364Z,4.62
2019-03-11T07:50:15.907Z,4.56
2019-03-11T07:52:44.706Z,4.31
2019-03-11T07:55:14.095Z,4.19
2019-03-11T07:57:42.692Z,4.01
2019-03-11T08:00:16.628Z,4.00
2019-03-11T08:02:45.227Z,4.02
2019-03-11T08:05:13.984Z,4.03
2019-03-11T08:07:43.354Z,4.19
2019-03-11T08:10:14.732Z,4.17
2019-03-11T08:12:43.365Z,4.24
2019-03-11T08:15:14.045Z,4.21
2019-03-11T08:17:42.595Z,4.27
2019-03-11T08:20:15.348Z,4.17
2019-03-11T08:22:43.951Z,4.25
2019-03-11T08:25:16.137Z,4.36
2019-03-11T08:27:45.227Z,4.34
2019-03-11T08:30:21.930Z,4.41
2019-03-11T08:32:51.658Z,4.33
2019-03-11T08:35:20.414Z,4.26
2019-03-11T08:37:48.969Z,4.29
2019-03-11T08:40:21.732Z,4.34
2019-03-11T08:42:50.453Z,4.32
2019-03-11T08:45:19.793Z,4.34
2019-03-11T08:47:48.524Z,4.37
2019-03-11T08:50:17.509Z,4.17
2019-03-11T08:52:46.121Z,4.36
2019-03-11T08:55:15.902Z,4.26
2019-03-11T08:57:44.495Z,4.29
2019-03-11T09:00:20.902Z,4.31
2019-03-11T09:02:49.775Z,4.28
2019-03-11T09:05:19.106Z,4.32
2019-03-11T09:07:47.735Z,4.56
2019-03-11T09:10:17.484Z,4.41
2019-03-11T09:12:46.999Z,4.52
2019-03-11T09:15:21.337Z,4.61
2019-03-11T09:17:49.908Z,4.62
2019-03-11T09:20:19.166Z,4.58
2019-03-11T09:22:47.769Z,4.42
2019-03-11T09:25:27.651Z,4.65
2019-03-11T09:27:56.171Z,4.49
2019-03-11T09:30:26.866Z,4.64
2019-03-11T09:32:55.804Z,4.43
2019-03-11T09:35:24.482Z,4.58
2019-03-11T09:37:53.074Z,4.68
2019-03-11T09:40:22.782Z,4.89
2019-03-11T09:42:51.380Z,4.95
2019-03-11T09:45:20.303Z,5.03
2019-03-11T09:47:49.838Z,4.97
2019-03-11T09:50:18.928Z,5.30
2019-03-11T09:52:47.606Z,5.05
2019-03-11T09:55:18.551Z,5.08
2019-03-11T09:57:47.185Z,5.66
2019-03-11T10:00:21.891Z,5.99
2019-03-11T10:02:52.835Z,6.35
2019-03-11T10:05:21.036Z,6.62
2019-03-11T10:07:49.720Z,6.75
2019-03-11T10:10:22.915Z,6.39
2019-03-11T10:12:51.482Z,6.43
2019-03-11T10:15:21.105Z,5.93
2019-03-11T10:17:49.769Z,5.64
2019-03-11T10:20:19.474Z,5.66
2019-03-11T10:22:48.534Z,5.41
2019-03-11T10:25:18.151Z,5.26
2019-03-11T10:27:47.086Z,5.15
2019-03-11T10:30:22.997Z,5.18
2019-03-11T10:32:51.647Z,5.19
2019-03-11T10:35:36.597Z,5.31
2019-03-11T10:37:51.549Z,5.30
2019-03-11T10:40:30.983Z,5.37
2019-03-11T10:42:59.681Z,5.60
2019-03-11T10:45:31.709Z,5.74
2019-03-11T10:47:58.795Z,6.15
2019-03-11T10:50:27.657Z,6.70
2019-03-11T10:52:56.225Z,7.18
2019-03-11T10:55:25.973Z,7.05
2019-03-11T10:57:54.897Z,7.00
2019-03-11T11:00:33.484Z,7.15
2019-03-11T11:03:02.634Z,7.24
2019-03-11T11:05:31.247Z,6.56
2019-03-11T11:07:59.939Z,6.21
2019-03-11T11:10:28.728Z,5.96
2019-03-11T11:12:57.318Z,5.85
2019-03-11T11:15:26.729Z,5.72
2019-03-11T11:17:55.553Z,5.60
2019-03-11T11:20:24.480Z,5.69
2019-03-11T11:22:54.010Z,5.64
2019-03-11T11:25:27.607Z,5.82
2019-03-11T11:27:56.248Z,5.95
2019-03-11T11:30:30.135Z,5.57
2019-03-11T11:32:58.595Z,5.61
2019-03-11T11:35:27.065Z,5.50
2019-03-11T11:37:55.587Z,5.20
2019-03-11T11:40:26.040Z,5.03
2019-03-11T11:42:54.892Z,5.09
2019-03-11T11:45:28.500Z,4.60
2019-03-11T11:47:57.635Z,4.57
2019-03-11T11:50:26.464Z,4.36
2019-03-11T11:52:55.112Z,4.08
2019-03-11T11:55:24.137Z,4.25
2019-03-11T11:57:52.951Z,4.38
2019-03-11T12:00:24.352Z,4.30
2019-03-11T12:02:53.710Z,4.43
2019-03-11T12:05:22.481Z,4.58
2019-03-11T12:07:51.234Z,4.36
2019-03-11T12:10:24.748Z,4.30
2019-03-11T12:12:53.388Z,4.30
2019-03-11T12:15:21.963Z,4.39
2019-03-11T12:17:50.444Z,4.36
2019-03-11T12:20:23.839Z,4.32
2019-03-11T12:22:52.486Z,4.22
2019-03-11T12:25:21.062Z,4.52
2019-03-11T12:27:54.056Z,4.50
2019-03-11T12:30:29.522Z,4.49
2019-03-11T12:32:58.841Z,4.68
2019-03-11T12:35:27.861Z,4.70
2019-03-11T12:37:57.710Z,4.77
2019-03-11T12:40:26.167Z,4.84
2019-03-11T12:42:55.162Z,5.02
2019-03-11T12:45:25.844Z,4.99
2019-03-11T12:47:54.652Z,4.97
2019-03-11T12:50:26.902Z,5.24
2019-03-11T12:52:55.413Z,5.38
2019-03-11T12:55:23.969Z,5.23
2019-03-11T12:57:52.519Z,5.17
2019-03-11T13:00:23.111Z,5.27
2019-03-11T13:02:52.255Z,5.40
2019-03-11T13:05:20.883Z,5.22
2019-03-11T13:07:49.775Z,5.37
2019-03-11T13:10:26.972Z,5.29
2019-03-11T13:12:55.529Z,5.24
2019-03-11T13:15:24.145Z,5.56
2019-03-11T13:17:52.616Z,5.78
2019-03-11T13:20:32.185Z,6.11
2019-03-11T13:23:01.215Z,5.93
2019-03-11T13:25:29.708Z,5.63
2019-03-11T13:27:58.636Z,5.93
2019-03-11T13:30:27.311Z,6.12
2019-03-11T13:32:55.980Z,6.28
2019-03-11T13:35:24.796Z,6.38
2019-03-11T13:37:53.992Z,6.16
2019-03-11T13:40:22.458Z,6.63
2019-03-11T13:42:51.428Z,6.80
2019-03-11T13:45:20.156Z,6.93
2019-03-11T13:47:48.822Z,6.42
2019-03-11T13:50:18.657Z,6.48
2019-03-11T13:52:47.687Z,6.33
2019-03-11T13:55:17.486Z,6.46
2019-03-11T13:57:46.288Z,6.85
2019-03-11T14:00:18.310Z,6.83
2019-03-11T14:02:46.985Z,6.87
2019-03-11T14:05:16.022Z,6.64
2019-03-11T14:07:44.695Z,6.40
2019-03-11T14:10:15.289Z,6.23
2019-03-11T14:12:44.175Z,6.14
2019-03-11T14:15:17.868Z,6.39
2019-03-11T14:17:46.509Z,6.45
2019-03-11T14:20:16.184Z,6.51
2019-03-11T14:22:44.779Z,6.53
2019-03-11T14:25:14.111Z,6.96
2019-03-11T14:27:43.087Z,6.78
2019-03-11T14:30:18.845Z,6.70
2019-03-11T14:32:47.470Z,6.72
2019-03-11T14:35:16.146Z,6.72
2019-03-11T14:37:46.027Z,7.17
2019-03-11T14:40:16.964Z,6.76
2019-03-11T14:42:45.815Z,6.80
2019-03-11T14:45:19.628Z,6.83
2019-03-11T14:47:48.277Z,6.79
2019-03-11T14:50:18.032Z,6.65
2019-03-11T14:52:47.189Z,6.80
2019-03-11T14:55:16.057Z,6.85
2019-03-11T14:57:44.671Z,7.04
2019-03-11T15:00:20.484Z,7.47
2019-03-11T15:02:49.699Z,7.04
2019-03-11T15:05:19.259Z,7.14
2019-03-11T15:07:48.208Z,6.27
2019-03-11T15:10:20.377Z,6.34
2019-03-11T15:12:49.407Z,6.21
2019-03-11T15:15:24.651Z,6.35
2019-03-11T15:17:53.657Z,6.37
2019-03-11T15:20:22.396Z,6.25
2019-03-11T15:22:51.483Z,6.56
2019-03-11T15:25:20.004Z,6.66
2019-03-11T15:27:49.066Z,6.75
2019-03-11T15:30:19.232Z,6.85
2019-03-11T15:32:48.483Z,6.49
2019-03-11T15:35:17.501Z,6.67
2019-03-11T15:37:46.485Z,6.60
2019-03-11T15:40:17.018Z,6.75
2019-03-11T15:42:46.146Z,6.68
2019-03-11T15:45:19.326Z,6.26
2019-03-11T15:47:48.193Z,6.39
2019-03-11T15:50:20.156Z,6.18
2019-03-11T15:52:48.759Z,5.79
2019-03-11T15:55:17.931Z,5.63
2019-03-11T15:57:46.943Z,5.67
2019-03-11T16:00:18.187Z,5.82
2019-03-11T16:03:04.539Z,5.78
2019-03-11T16:05:33.036Z,5.69
2019-03-11T16:08:01.477Z,5.62
2019-03-11T16:10:30.299Z,5.51
2019-03-11T16:12:59.251Z,5.51
2019-03-11T16:15:27.820Z,5.54
2019-03-11T16:17:56.407Z,5.49
2019-03-11T16:20:26.763Z,5.57
2019-03-11T16:22:55.747Z,5.60
2019-03-11T16:25:24.450Z,5.72
2019-03-11T16:27:53.151Z,5.72
2019-03-11T16:30:23.377Z,5.69
2019-03-11T16:32:59.415Z,5.64
2019-03-11T16:35:24.218Z,5.66
2019-03-11T16:37:52.948Z,5.78
2019-03-11T16:40:21.906Z,5.58
2019-03-11T16:42:50.730Z,5.65
2019-03-11T16:45:20.869Z,5.69
2019-03-11T16:47:49.628Z,5.53
2019-03-11T16:50:20.641Z,5.40
2019-03-11T16:52:49.715Z,5.28
2019-03-11T16:55:23.124Z,5.48
2019-03-11T16:57:53.678Z,5.45
2019-03-11T17:00:25.627Z,5.58
2019-03-11T17:02:54.622Z,5.61
2019-03-11T17:05:23.209Z,5.40
2019-03-11T17:07:53.982Z,5.56
2019-03-11T17:10:23.219Z,5.50
2019-03-11T17:12:52.354Z,5.44
2019-03-11T17:15:20.881Z,5.52
2019-03-11T17:17:49.469Z,5.55
2019-03-11T17:20:19.253Z,5.57
2019-03-11T17:22:47.865Z,5.55
2019-03-11T17:25:16.667Z,5.28
2019-03-11T17:27:45.338Z,5.20
2019-03-11T17:30:26.051Z,5.24
2019-03-11T17:32:54.759Z,5.21
2019-03-11T17:35:23.398Z,5.26
2019-03-11T17:37:53.216Z,5.30
2019-03-11T17:40:23.663Z,5.19
2019-03-11T17:42:52.877Z,5.19
2019-03-11T17:45:22.016Z,5.11
2019-03-11T17:47:50.941Z,5.17
2019-03-11T17:50:21.021Z,5.30
2019-03-11T17:52:49.903Z,5.24
2019-03-11T17:55:19.501Z,5.33
2019-03-11T17:57:48.425Z,5.34
2019-03-11T18:00:29.002Z,5.35
2019-03-11T18:02:58.031Z,5.34
2019-03-11T18:05:27.001Z,5.39
2019-03-11T18:07:56.117Z,5.39
2019-03-11T18:10:24.700Z,5.43
2019-03-11T18:12:53.506Z,5.31
2019-03-11T18:15:22.179Z,5.41
2019-03-11T18:17:50.938Z,5.41
2019-03-11T18:20:20.648Z,5.38
2019-03-11T18:22:51.816Z,5.44
2019-03-11T18:25:21.272Z,5.23
2019-03-11T18:27:49.858Z,5.20
2019-03-11T18:30:20.739Z,5.34
2019-03-11T18:32:49.451Z,5.20
2019-03-11T18:35:18.595Z,5.23
2019-03-11T18:37:47.221Z,5.13
2019-03-11T18:40:18.130Z,5.09
2019-03-11T18:42:47.152Z,5.17
2019-03-11T18:45:17.463Z,5.02
2019-03-11T18:47:46.243Z,4.93
2019-03-11T18:50:19.935Z,4.82
2019-03-11T18:52:48.637Z,4.98
2019-03-11T18:55:17.315Z,4.78
2019-03-11T18:57:46.308Z,4.63
2019-03-11T19:00:18.932Z,4.77
2019-03-11T19:02:47.813Z,4.73
2019-03-11T19:05:24.322Z,4.73
2019-03-11T19:07:55.067Z,4.71
2019-03-11T19:10:24.235Z,4.71
2019-03-11T19:12:53.056Z,4.63
2019-03-11T19:15:25.524Z,4.52
2019-03-11T19:17:54.178Z,4.42
2019-03-11T19:20:23.806Z,4.32
2019-03-11T19:22:56.714Z,4.18
2019-03-11T19:25:25.435Z,3.99
2019-03-11T19:27:55.253Z,4.12
2019-03-11T19:30:28.342Z,4.25
2019-03-11T19:32:57.932Z,4.14
2019-03-11T19:35:26.978Z,4.16
2019-03-11T19:37:56.085Z,4.10
2019-03-11T19:40:27.240Z,4.08
2019-03-11T19:42:56.070Z,3.96
2019-03-11T19:45:24.860Z,3.92
2019-03-11T19:47:54.169Z,3.99
2019-03-11T19:50:24.036Z,3.91
2019-03-11T19:52:58.500Z,4.01
2019-03-11T19:55:23.036Z,4.01
2019-03-11T19:57:51.608Z,3.81
2019-03-11T20:00:22.025Z,3.78
2019-03-11T20:02:51.649Z,3.66
2019-03-11T20:05:29.038Z,3.78
2019-03-11T20:07:57.951Z,3.42
2019-03-11T20:10:26.652Z,3.61
2019-03-11T20:12:55.364Z,3.68
2019-03-11T20:15:23.994Z,3.70
2019-03-11T20:17:53.112Z,3.74
2019-03-11T20:20:22.071Z,3.66
2019-03-11T20:22:51.616Z,3.50
2019-03-11T20:25:37.481Z,3.47
2019-03-11T20:28:06.147Z,3.43
2019-03-11T20:30:34.997Z,3.32
2019-03-11T20:33:04.159Z,3.11
2019-03-11T20:35:33.259Z,3.13
2019-03-11T20:38:02.508Z,3.19
2019-03-11T20:40:31.075Z,3.28
2019-03-11T20:42:59.811Z,3.38
2019-03-11T20:45:28.447Z,3.22
2019-03-11T20:47:57.011Z,3.16
2019-03-11T20:50:25.627Z,3.38
2019-03-11T20:52:54.581Z,3.33
2019-03-11T20:55:23.369Z,3.19
2019-03-11T20:57:52.187Z,3.53
2019-03-11T21:00:21.851Z,3.64
2019-03-11T21:02:50.944Z,3.60
2019-03-11T21:05:35.696Z,3.51
2019-03-11T21:08:04.983Z,3.55
2019-03-11T21:10:33.625Z,3.43
2019-03-11T21:13:02.356Z,3.32
2019-03-11T21:15:30.948Z,3.25
2019-03-11T21:17:59.900Z,3.25
2019-03-11T21:20:28.530Z,3.26
2019-03-11T21:22:57.249Z,3.16
2019-03-11T21:25:26.109Z,3.13
2019-03-11T21:27:54.738Z,3.04
2019-03-11T21:30:25.011Z,2.93
2019-03-11T21:32:54.371Z,3.15
2019-03-11T21:35:24.078Z,3.28
2019-03-11T21:37:52.826Z,3.39
2019-03-11T21:40:22.906Z,3.41
2019-03-11T21:42:51.867Z,3.54
2019-03-11T21:45:33.361Z,3.56
2019-03-11T21:47:53.101Z,3.44
2019-03-11T21:50:25.985Z,3.40
2019-03-11T21:52:54.751Z,3.38
2019-03-11T21:55:23.893Z,3.51
2019-03-11T21:57:52.832Z,3.45
2019-03-11T22:00:34.550Z,3.48
2019-03-11T22:02:56.722Z,3.52
2019-03-11T22:05:27.859Z,3.49
2019-03-11T22:07:56.403Z,3.50
2019-03-11T22:10:25.422Z,3.56
2019-03-11T22:12:53.981Z,3.63
2019-03-11T22:15:24.308Z,3.59
2019-03-11T22:17:52.903Z,3.54
2019-03-11T22:20:21.759Z,3.37
2019-03-11T22:22:50.532Z,3.44
2019-03-11T22:25:21.080Z,3.45
2019-03-11T22:27:49.671Z,3.23
2019-03-11T22:30:24.232Z,3.29
2019-03-11T22:32:52.981Z,3.17
2019-03-11T22:35:21.656Z,3.16
2019-03-11T22:37:50.446Z,3.19
2019-03-11T22:40:20.009Z,3.04
2019-03-11T22:42:48.553Z,3.02
2019-03-11T22:45:21.566Z,3.08
2019-03-11T22:47:51.378Z,3.09
2019-03-11T22:50:20.462Z,2.94
2019-03-11T22:52:49.173Z,2.92
2019-03-11T22:55:19.477Z,2.82
2019-03-11T22:57:48.313Z,2.84
2019-03-11T23:00:20.694Z,2.83
2019-03-11T23:02:49.644Z,2.77
2019-03-11T23:05:18.202Z,2.74
2019-03-11T23:07:46.892Z,2.65
2019-03-11T23:10:15.456Z,2.72
2019-03-11T23:12:44.071Z,2.69
2019-03-11T23:15:12.793Z,2.59
2019-03-11T23:17:41.346Z,2.61
2019-03-11T23:20:10.095Z,2.56
2019-03-11T23:22:38.701Z,2.49
2019-03-11T23:25:08.400Z,2.56
2019-03-11T23:27:37.011Z,2.34
2019-03-11T23:30:08.761Z,2.32
2019-03-11T23:32:38.095Z,2.41
2019-03-11T23:35:07.475Z,2.38
2019-03-11T23:37:36.030Z,2.54
2019-03-11T23:40:06.453Z,2.64
2019-03-11T23:42:35.029Z,2.71
2019-03-11T23:45:05.100Z,2.59
2019-03-11T23:47:33.622Z,2.83
2019-03-11T23:50:02.133Z,2.91
2019-03-11T23:52:30.683Z,2.87
2019-03-11T23:54:59.301Z,2.99
2019-03-11T23:57:27.867Z,2.96
2019-03-11T23:59:56.464Z,3.07
